sensor_id;sensor_type;location;lat;lon;timestamp;temperature;humidity
34829;DHT22;21042;47.620;12.188;2023-07-31T00:02:19;14.80;99.90
34829;DHT22;21042;47.620;12.188;2023-07-31T00:04:46;14.80;99.90
34829;DHT22;21042;47.620;12.188;2023-07-31T00:07:13;14.80;99.90
34829;DHT22;21042;47.620;12.188;2023-07-31T00:09:40;14.80;99.90
34829;DHT22;21042;47.620;12.188;2023-07-31T00:12:07;14.80;99.90
34829;DHT22;21042;47.620;12.188;2023-07-31T00:14:34;14.70;99.90
34829;DHT22;21042;47.620;12.188;2023-07-31T00:17:01;14.70;99.90
34829;DHT22;21042;47.620;12.188;2023-07-31T00:19:28;14.70;99.90
34829;DHT22;21042;47.620;12.188;2023-07-31T00:21:54;14.70;99.90
34829;DHT22;21042;47.620;12.188;2023-07-31T00:24:21;14.70;99.90
34829;DHT22;21042;47.620;12.188;2023-07-31T00:26:48;14.70;99.90
34829;DHT22;21042;47.620;12.188;2023-07-31T00:29:14;14.80;99.90
34829;DHT22;21042;47.620;12.188;2023-07-31T00:31:41;14.70;99.90
34829;DHT22;21042;47.620;12.188;2023-07-31T00:34:08;14.70;99.90
34829;DHT22;21042;47.620;12.188;2023-07-31T00:36:35;14.70;99.90
34829;DHT22;21042;47.620;12.188;2023-07-31T00:39:02;14.70;99.90
34829;DHT22;21042;47.620;12.188;2023-07-31T00:41:29;14.70;99.90
34829;DHT22;21042;47.620;12.188;2023-07-31T00:43:56;14.70;99.90
34829;DHT22;21042;47.620;12.188;2023-07-31T00:46:22;14.60;99.90
34829;DHT22;21042;47.620;12.188;2023-07-31T00:48:49;14.60;99.90
34829;DHT22;21042;47.620;12.188;2023-07-31T00:51:17;14.60;99.90
34829;DHT22;21042;47.620;12.188;2023-07-31T00:53:45;14.60;99.90
34829;DHT22;21042;47.620;12.188;2023-07-31T00:56:13;14.70;99.90
34829;DHT22;21042;47.620;12.188;2023-07-31T00:58:40;14.60;99.90
34829;DHT22;21042;47.620;12.188;2023-07-31T01:01:07;14.70;99.90
34829;DHT22;21042;47.620;12.188;2023-07-31T01:03:34;14.70;99.90
34829;DHT22;21042;47.620;12.188;2023-07-31T01:09:03;14.70;99.90
34829;DHT22;21042;47.620;12.188;2023-07-31T01:11:57;14.70;99.90
34829;DHT22;21042;47.620;12.188;2023-07-31T01:14:27;14.70;99.90
34829;DHT22;21042;47.620;12.188;2023-07-31T01:16:54;14.70;99.90
34829;DHT22;21042;47.620;12.188;2023-07-31T01:19:23;14.60;99.90
34829;DHT22;21042;47.620;12.188;2023-07-31T01:25:15;14.60;99.90
34829;DHT22;21042;47.620;12.188;2023-07-31T01:27:56;14.50;99.90
34829;DHT22;21042;47.620;12.188;2023-07-31T01:30:27;14.50;99.90
34829;DHT22;21042;47.620;12.188;2023-07-31T01:32:56;14.40;99.90
34829;DHT22;21042;47.620;12.188;2023-07-31T01:35:23;14.40;99.90
34829;DHT22;21042;47.620;12.188;2023-07-31T01:37:53;14.70;99.90
34829;DHT22;21042;47.620;12.188;2023-07-31T01:40:20;14.40;99.90
34829;DHT22;21042;47.620;12.188;2023-07-31T01:42:47;14.30;99.90
34829;DHT22;21042;47.620;12.188;2023-07-31T01:45:14;14.30;99.90
34829;DHT22;21042;47.620;12.188;2023-07-31T01:47:41;14.30;99.90
34829;DHT22;21042;47.620;12.188;2023-07-31T01:50:08;14.30;99.90
34829;DHT22;21042;47.620;12.188;2023-07-31T01:52:35;14.30;99.90
34829;DHT22;21042;47.620;12.188;2023-07-31T01:55:02;14.30;99.90
34829;DHT22;21042;47.620;12.188;2023-07-31T01:57:29;14.40;99.90
34829;DHT22;21042;47.620;12.188;2023-07-31T01:59:56;14.40;99.90
34829;DHT22;21042;47.620;12.188;2023-07-31T02:02:23;14.40;99.90
34829;DHT22;21042;47.620;12.188;2023-07-31T02:04:51;14.40;99.90
34829;DHT22;21042;47.620;12.188;2023-07-31T02:07:18;14.40;99.90
34829;DHT22;21042;47.620;12.188;2023-07-31T02:09:44;14.40;99.90
34829;DHT22;21042;47.620;12.188;2023-07-31T02:12:13;14.50;99.90
34829;DHT22;21042;47.620;12.188;2023-07-31T02:14:41;14.30;99.90
34829;DHT22;21042;47.620;12.188;2023-07-31T02:17:08;14.30;99.90
34829;DHT22;21042;47.620;12.188;2023-07-31T02:19:35;14.30;99.90
34829;DHT22;21042;47.620;12.188;2023-07-31T02:22:02;14.30;99.90
34829;DHT22;21042;47.620;12.188;2023-07-31T02:24:28;14.30;99.90
34829;DHT22;21042;47.620;12.188;2023-07-31T02:26:57;14.50;99.90
34829;DHT22;21042;47.620;12.188;2023-07-31T02:29:25;14.30;99.90
34829;DHT22;21042;47.620;12.188;2023-07-31T02:31:52;14.20;99.90
34829;DHT22;21042;47.620;12.188;2023-07-31T02:34:18;14.20;99.90
34829;DHT22;21042;47.620;12.188;2023-07-31T02:36:45;14.20;99.90
34829;DHT22;21042;47.620;12.188;2023-07-31T02:39:12;14.10;99.90
34829;DHT22;21042;47.620;12.188;2023-07-31T02:41:39;14.10;99.90
34829;DHT22;21042;47.620;12.188;2023-07-31T02:44:06;14.00;99.90
34829;DHT22;21042;47.620;12.188;2023-07-31T02:46:32;14.00;99.90
34829;DHT22;21042;47.620;12.188;2023-07-31T02:48:59;14.10;99.90
34829;DHT22;21042;47.620;12.188;2023-07-31T02:51:26;14.10;99.90
34829;DHT22;21042;47.620;12.188;2023-07-31T02:53:53;14.10;99.90
34829;DHT22;21042;47.620;12.188;2023-07-31T02:56:19;14.10;99.90
34829;DHT22;21042;47.620;12.188;2023-07-31T02:58:46;14.10;99.90
34829;DHT22;21042;47.620;12.188;2023-07-31T03:01:13;14.10;99.90
34829;DHT22;21042;47.620;12.188;2023-07-31T03:03:41;14.40;99.90
34829;DHT22;21042;47.620;12.188;2023-07-31T03:06:09;14.10;99.90
34829;DHT22;21042;47.620;12.188;2023-07-31T03:08:36;14.10;99.90
34829;DHT22;21042;47.620;12.188;2023-07-31T03:11:02;14.10;99.90
34829;DHT22;21042;47.620;12.188;2023-07-31T03:13:29;14.10;99.90
34829;DHT22;21042;47.620;12.188;2023-07-31T03:15:56;14.10;99.90
34829;DHT22;21042;47.620;12.188;2023-07-31T03:18:23;14.00;99.90
34829;DHT22;21042;47.620;12.188;2023-07-31T03:20:49;14.00;99.90
34829;DHT22;21042;47.620;12.188;2023-07-31T03:23:16;14.00;99.90
34829;DHT22;21042;47.620;12.188;2023-07-31T03:26:16;14.00;99.90
34829;DHT22;21042;47.620;12.188;2023-07-31T03:28:42;14.00;99.90
34829;DHT22;21042;47.620;12.188;2023-07-31T03:31:09;14.00;99.90
34829;DHT22;21042;47.620;12.188;2023-07-31T03:33:36;13.90;99.90
34829;DHT22;21042;47.620;12.188;2023-07-31T03:36:03;13.90;99.90
34829;DHT22;21042;47.620;12.188;2023-07-31T03:38:30;13.90;99.90
34829;DHT22;21042;47.620;12.188;2023-07-31T03:40:57;13.80;99.90
34829;DHT22;21042;47.620;12.188;2023-07-31T03:43:25;13.80;99.90
34829;DHT22;21042;47.620;12.188;2023-07-31T03:45:53;13.90;99.90
34829;DHT22;21042;47.620;12.188;2023-07-31T03:48:20;13.80;99.90
34829;DHT22;21042;47.620;12.188;2023-07-31T03:50:47;13.80;99.90
34829;DHT22;21042;47.620;12.188;2023-07-31T03:53:13;13.80;99.90
34829;DHT22;21042;47.620;12.188;2023-07-31T03:55:41;13.80;99.90
34829;DHT22;21042;47.620;12.188;2023-07-31T03:58:07;13.80;99.90
34829;DHT22;21042;47.620;12.188;2023-07-31T04:00:34;13.80;99.90
34829;DHT22;21042;47.620;12.188;2023-07-31T04:03:01;13.80;99.90
34829;DHT22;21042;47.620;12.188;2023-07-31T04:05:31;13.90;99.90
34829;DHT22;21042;47.620;12.188;2023-07-31T04:07:58;13.90;99.90
34829;DHT22;21042;47.620;12.188;2023-07-31T04:10:25;13.90;99.90
34829;DHT22;21042;47.620;12.188;2023-07-31T04:12:51;13.90;99.90
34829;DHT22;21042;47.620;12.188;2023-07-31T04:15:18;14.00;99.90
34829;DHT22;21042;47.620;12.188;2023-07-31T04:17:45;14.00;99.90
34829;DHT22;21042;47.620;12.188;2023-07-31T04:20:11;14.10;99.90
34829;DHT22;21042;47.620;12.188;2023-07-31T04:22:38;14.20;99.90
34829;DHT22;21042;47.620;12.188;2023-07-31T04:25:05;14.20;99.90
34829;DHT22;21042;47.620;12.188;2023-07-31T04:27:32;14.30;99.90
34829;DHT22;21042;47.620;12.188;2023-07-31T04:29:59;14.30;99.90
34829;DHT22;21042;47.620;12.188;2023-07-31T04:32:26;14.30;99.90
34829;DHT22;21042;47.620;12.188;2023-07-31T04:34:52;14.50;99.90
34829;DHT22;21042;47.620;12.188;2023-07-31T04:37:19;14.60;99.90
34829;DHT22;21042;47.620;12.188;2023-07-31T04:39:46;14.60;99.90
34829;DHT22;21042;47.620;12.188;2023-07-31T04:42:13;14.70;99.90
34829;DHT22;21042;47.620;12.188;2023-07-31T04:44:40;14.80;99.90
34829;DHT22;21042;47.620;12.188;2023-07-31T04:47:06;14.90;99.90
34829;DHT22;21042;47.620;12.188;2023-07-31T04:49:33;14.80;99.90
34829;DHT22;21042;47.620;12.188;2023-07-31T04:52:00;14.80;99.90
34829;DHT22;21042;47.620;12.188;2023-07-31T04:54:27;14.80;99.90
34829;DHT22;21042;47.620;12.188;2023-07-31T04:56:53;14.70;99.90
34829;DHT22;21042;47.620;12.188;2023-07-31T04:59:20;14.70;99.90
34829;DHT22;21042;47.620;12.188;2023-07-31T05:01:47;14.70;99.90
34829;DHT22;21042;47.620;12.188;2023-07-31T05:04:14;14.70;99.90
34829;DHT22;21042;47.620;12.188;2023-07-31T05:06:41;14.80;99.90
34829;DHT22;21042;47.620;12.188;2023-07-31T05:09:08;14.80;99.90
34829;DHT22;21042;47.620;12.188;2023-07-31T05:11:36;14.90;99.90
34829;DHT22;21042;47.620;12.188;2023-07-31T05:14:03;14.90;99.90
34829;DHT22;21042;47.620;12.188;2023-07-31T05:16:29;15.00;99.90
34829;DHT22;21042;47.620;12.188;2023-07-31T05:18:56;15.10;99.90
34829;DHT22;21042;47.620;12.188;2023-07-31T05:21:23;15.20;99.90
34829;DHT22;21042;47.620;12.188;2023-07-31T05:23:50;15.30;99.90
34829;DHT22;21042;47.620;12.188;2023-07-31T05:26:17;15.40;99.90
34829;DHT22;21042;47.620;12.188;2023-07-31T05:28:45;15.50;99.90
34829;DHT22;21042;47.620;12.188;2023-07-31T05:31:11;15.50;99.90
34829;DHT22;21042;47.620;12.188;2023-07-31T05:33:38;15.70;99.90
34829;DHT22;21042;47.620;12.188;2023-07-31T05:36:05;15.80;99.90
34829;DHT22;21042;47.620;12.188;2023-07-31T05:38:32;15.90;99.90
34829;DHT22;21042;47.620;12.188;2023-07-31T05:40:59;16.00;99.90
34829;DHT22;21042;47.620;12.188;2023-07-31T05:43:25;16.10;99.90
34829;DHT22;21042;47.620;12.188;2023-07-31T05:45:52;16.20;99.90
34829;DHT22;21042;47.620;12.188;2023-07-31T05:48:19;16.30;99.90
34829;DHT22;21042;47.620;12.188;2023-07-31T05:50:46;16.40;99.90
34829;DHT22;21042;47.620;12.188;2023-07-31T05:53:13;16.40;99.90
34829;DHT22;21042;47.620;12.188;2023-07-31T05:55:39;16.40;99.90
34829;DHT22;21042;47.620;12.188;2023-07-31T05:58:06;16.30;99.90
34829;DHT22;21042;47.620;12.188;2023-07-31T06:00:33;16.40;99.90
34829;DHT22;21042;47.620;12.188;2023-07-31T06:03:00;16.40;99.90
34829;DHT22;21042;47.620;12.188;2023-07-31T06:05:27;16.30;99.90
34829;DHT22;21042;47.620;12.188;2023-07-31T06:07:56;16.30;99.90
34829;DHT22;21042;47.620;12.188;2023-07-31T06:10:23;16.20;99.90
34829;DHT22;21042;47.620;12.188;2023-07-31T06:12:49;16.30;99.90
34829;DHT22;21042;47.620;12.188;2023-07-31T06:15:16;16.30;99.90
34829;DHT22;21042;47.620;12.188;2023-07-31T06:17:45;16.30;99.90
34829;DHT22;21042;47.620;12.188;2023-07-31T06:20:12;16.30;99.90
34829;DHT22;21042;47.620;12.188;2023-07-31T06:22:39;16.40;99.90
34829;DHT22;21042;47.620;12.188;2023-07-31T06:25:06;16.40;99.90
34829;DHT22;21042;47.620;12.188;2023-07-31T06:27:33;16.50;99.90
34829;DHT22;21042;47.620;12.188;2023-07-31T06:30:00;16.50;99.90
34829;DHT22;21042;47.620;12.188;2023-07-31T06:32:27;16.70;99.90
34829;DHT22;21042;47.620;12.188;2023-07-31T06:34:54;16.90;99.90
34829;DHT22;21042;47.620;12.188;2023-07-31T06:37:20;17.00;99.90
34829;DHT22;21042;47.620;12.188;2023-07-31T06:39:47;17.20;99.90
34829;DHT22;21042;47.620;12.188;2023-07-31T06:42:14;17.30;99.90
34829;DHT22;21042;47.620;12.188;2023-07-31T06:44:41;17.40;99.90
34829;DHT22;21042;47.620;12.188;2023-07-31T06:47:08;17.50;99.90
34829;DHT22;21042;47.620;12.188;2023-07-31T06:49:35;17.60;99.90
34829;DHT22;21042;47.620;12.188;2023-07-31T06:52:02;17.70;99.90
34829;DHT22;21042;47.620;12.188;2023-07-31T06:54:29;17.80;99.90
34829;DHT22;21042;47.620;12.188;2023-07-31T06:56:56;17.70;99.90
34829;DHT22;21042;47.620;12.188;2023-07-31T06:59:22;17.80;99.90
34829;DHT22;21042;47.620;12.188;2023-07-31T07:01:49;17.90;99.90
34829;DHT22;21042;47.620;12.188;2023-07-31T07:04:16;18.10;99.90
34829;DHT22;21042;47.620;12.188;2023-07-31T07:06:43;18.30;99.90
34829;DHT22;21042;47.620;12.188;2023-07-31T07:09:09;18.40;99.90
34829;DHT22;21042;47.620;12.188;2023-07-31T07:11:36;18.40;99.90
34829;DHT22;21042;47.620;12.188;2023-07-31T07:14:04;18.40;99.90
34829;DHT22;21042;47.620;12.188;2023-07-31T07:16:31;18.20;99.90
34829;DHT22;21042;47.620;12.188;2023-07-31T07:18:57;18.30;99.90
34829;DHT22;21042;47.620;12.188;2023-07-31T07:21:31;18.40;99.90
34829;DHT22;21042;47.620;12.188;2023-07-31T07:23:57;18.50;99.90
34829;DHT22;21042;47.620;12.188;2023-07-31T07:26:24;18.60;99.90
34829;DHT22;21042;47.620;12.188;2023-07-31T07:28:51;18.70;99.90
34829;DHT22;21042;47.620;12.188;2023-07-31T07:31:20;18.90;99.90
34829;DHT22;21042;47.620;12.188;2023-07-31T07:33:47;19.00;99.90
34829;DHT22;21042;47.620;12.188;2023-07-31T07:36:13;19.00;99.90
34829;DHT22;21042;47.620;12.188;2023-07-31T07:38:40;19.30;99.90
34829;DHT22;21042;47.620;12.188;2023-07-31T07:41:08;19.60;99.90
34829;DHT22;21042;47.620;12.188;2023-07-31T07:43:34;19.80;99.90
34829;DHT22;21042;47.620;12.188;2023-07-31T07:46:01;20.10;99.90
34829;DHT22;21042;47.620;12.188;2023-07-31T07:48:28;20.30;99.90
34829;DHT22;21042;47.620;12.188;2023-07-31T07:50:55;20.50;99.90
34829;DHT22;21042;47.620;12.188;2023-07-31T07:53:22;20.70;99.90
34829;DHT22;21042;47.620;12.188;2023-07-31T07:55:48;20.40;99.90
34829;DHT22;21042;47.620;12.188;2023-07-31T07:58:15;20.20;99.90
34829;DHT22;21042;47.620;12.188;2023-07-31T08:00:48;20.10;99.90
34829;DHT22;21042;47.620;12.188;2023-07-31T08:03:15;20.10;99.90
34829;DHT22;21042;47.620;12.188;2023-07-31T08:05:44;20.20;99.90
34829;DHT22;21042;47.620;12.188;2023-07-31T08:08:14;20.30;99.90
34829;DHT22;21042;47.620;12.188;2023-07-31T08:10:41;20.40;99.90
34829;DHT22;21042;47.620;12.188;2023-07-31T08:13:07;20.30;99.90
34829;DHT22;21042;47.620;12.188;2023-07-31T08:15:34;20.50;99.90
34829;DHT22;21042;47.620;12.188;2023-07-31T08:18:01;20.60;99.90
34829;DHT22;21042;47.620;12.188;2023-07-31T08:20:28;20.50;99.90
34829;DHT22;21042;47.620;12.188;2023-07-31T08:22:55;20.60;99.90
34829;DHT22;21042;47.620;12.188;2023-07-31T08:25:21;20.80;99.90
34829;DHT22;21042;47.620;12.188;2023-07-31T08:27:48;20.90;99.90
34829;DHT22;21042;47.620;12.188;2023-07-31T08:30:15;20.90;99.90
34829;DHT22;21042;47.620;12.188;2023-07-31T08:32:41;20.90;99.90
34829;DHT22;21042;47.620;12.188;2023-07-31T08:35:08;21.10;99.90
34829;DHT22;21042;47.620;12.188;2023-07-31T08:37:35;21.20;99.90
34829;DHT22;21042;47.620;12.188;2023-07-31T08:40:03;21.10;99.90
34829;DHT22;21042;47.620;12.188;2023-07-31T08:42:30;21.40;99.90
34829;DHT22;21042;47.620;12.188;2023-07-31T08:44:59;21.60;99.90
34829;DHT22;21042;47.620;12.188;2023-07-31T08:47:26;22.10;99.90
34829;DHT22;21042;47.620;12.188;2023-07-31T08:49:54;22.40;99.90
34829;DHT22;21042;47.620;12.188;2023-07-31T08:52:22;22.80;99.90
34829;DHT22;21042;47.620;12.188;2023-07-31T08:54:49;23.10;99.90
34829;DHT22;21042;47.620;12.188;2023-07-31T08:57:16;23.30;99.90
34829;DHT22;21042;47.620;12.188;2023-07-31T08:59:44;23.60;99.90
34829;DHT22;21042;47.620;12.188;2023-07-31T09:02:12;23.30;99.90
34829;DHT22;21042;47.620;12.188;2023-07-31T09:04:40;23.10;99.90
34829;DHT22;21042;47.620;12.188;2023-07-31T09:07:07;23.20;99.90
34829;DHT22;21042;47.620;12.188;2023-07-31T09:09:35;23.40;99.90
34829;DHT22;21042;47.620;12.188;2023-07-31T09:12:02;23.50;99.90
34829;DHT22;21042;47.620;12.188;2023-07-31T09:14:29;23.50;99.90
34829;DHT22;21042;47.620;12.188;2023-07-31T09:16:57;23.40;99.90
34829;DHT22;21042;47.620;12.188;2023-07-31T09:19:32;23.50;99.90
34829;DHT22;21042;47.620;12.188;2023-07-31T09:22:00;23.70;99.90
34829;DHT22;21042;47.620;12.188;2023-07-31T09:24:30;23.80;99.90
34829;DHT22;21042;47.620;12.188;2023-07-31T09:26:58;24.00;99.90
34829;DHT22;21042;47.620;12.188;2023-07-31T09:29:27;24.10;99.90
34829;DHT22;21042;47.620;12.188;2023-07-31T09:31:55;24.10;99.90
34829;DHT22;21042;47.620;12.188;2023-07-31T09:34:30;24.10;99.90
34829;DHT22;21042;47.620;12.188;2023-07-31T09:37:02;24.10;99.90
34829;DHT22;21042;47.620;12.188;2023-07-31T09:39:29;24.20;99.90
34829;DHT22;21042;47.620;12.188;2023-07-31T09:41:56;24.10;99.90
34829;DHT22;21042;47.620;12.188;2023-07-31T09:44:39;23.60;99.90
34829;DHT22;21042;47.620;12.188;2023-07-31T09:47:24;23.20;99.90
34829;DHT22;21042;47.620;12.188;2023-07-31T09:49:53;22.90;99.90
34829;DHT22;21042;47.620;12.188;2023-07-31T09:52:19;22.90;99.90
34829;DHT22;21042;47.620;12.188;2023-07-31T09:54:46;23.20;99.90
34829;DHT22;21042;47.620;12.188;2023-07-31T09:57:13;23.50;99.90
34829;DHT22;21042;47.620;12.188;2023-07-31T09:59:43;23.50;99.90
34829;DHT22;21042;47.620;12.188;2023-07-31T10:02:15;23.30;99.90
34829;DHT22;21042;47.620;12.188;2023-07-31T10:04:49;23.30;99.90
34829;DHT22;21042;47.620;12.188;2023-07-31T10:07:17;23.10;99.90
34829;DHT22;21042;47.620;12.188;2023-07-31T10:09:45;23.20;99.90
34829;DHT22;21042;47.620;12.188;2023-07-31T10:12:14;23.20;99.90
34829;DHT22;21042;47.620;12.188;2023-07-31T10:14:42;23.40;99.90
34829;DHT22;21042;47.620;12.188;2023-07-31T10:17:09;23.60;99.90
34829;DHT22;21042;47.620;12.188;2023-07-31T10:19:36;23.60;99.90
34829;DHT22;21042;47.620;12.188;2023-07-31T10:22:04;23.50;99.90
34829;DHT22;21042;47.620;12.188;2023-07-31T10:24:31;23.50;99.90
34829;DHT22;21042;47.620;12.188;2023-07-31T10:27:00;23.40;99.90
34829;DHT22;21042;47.620;12.188;2023-07-31T10:29:29;23.20;99.90
34829;DHT22;21042;47.620;12.188;2023-07-31T10:31:57;23.10;99.90
34829;DHT22;21042;47.620;12.188;2023-07-31T10:34:25;23.10;99.90
34829;DHT22;21042;47.620;12.188;2023-07-31T10:40:00;23.40;99.90
34829;DHT22;21042;47.620;12.188;2023-07-31T10:42:29;23.20;99.90
34829;DHT22;21042;47.620;12.188;2023-07-31T10:45:04;23.10;99.90
34829;DHT22;21042;47.620;12.188;2023-07-31T10:50:20;22.70;99.90
34829;DHT22;21042;47.620;12.188;2023-07-31T10:52:51;22.60;99.90
34829;DHT22;21042;47.620;12.188;2023-07-31T10:55:25;22.60;99.90
34829;DHT22;21042;47.620;12.188;2023-07-31T10:57:53;22.90;99.90
34829;DHT22;21042;47.620;12.188;2023-07-31T11:00:21;23.10;99.90
34829;DHT22;21042;47.620;12.188;2023-07-31T11:02:58;23.20;99.90
34829;DHT22;21042;47.620;12.188;2023-07-31T11:08:24;23.30;99.90
34829;DHT22;21042;47.620;12.188;2023-07-31T11:11:10;23.30;99.90
34829;DHT22;21042;47.620;12.188;2023-07-31T11:13:45;23.30;99.90
34829;DHT22;21042;47.620;12.188;2023-07-31T11:16:12;23.30;99.90
34829;DHT22;21042;47.620;12.188;2023-07-31T11:18:41;23.30;99.90
34829;DHT22;21042;47.620;12.188;2023-07-31T11:21:13;23.40;99.90
34829;DHT22;21042;47.620;12.188;2023-07-31T11:23:40;23.50;99.90
34829;DHT22;21042;47.620;12.188;2023-07-31T11:26:07;23.60;99.90
34829;DHT22;21042;47.620;12.188;2023-07-31T11:28:34;23.50;99.90
34829;DHT22;21042;47.620;12.188;2023-07-31T11:31:02;23.40;99.90
34829;DHT22;21042;47.620;12.188;2023-07-31T11:33:29;23.30;99.90
34829;DHT22;21042;47.620;12.188;2023-07-31T11:35:56;22.90;99.90
34829;DHT22;21042;47.620;12.188;2023-07-31T11:38:29;22.90;99.90
34829;DHT22;21042;47.620;12.188;2023-07-31T11:41:01;22.90;99.90
34829;DHT22;21042;47.620;12.188;2023-07-31T11:43:31;23.00;99.90
34829;DHT22;21042;47.620;12.188;2023-07-31T11:46:00;22.90;99.90
34829;DHT22;21042;47.620;12.188;2023-07-31T11:48:36;22.80;99.90
34829;DHT22;21042;47.620;12.188;2023-07-31T11:51:09;22.80;99.90
34829;DHT22;21042;47.620;12.188;2023-07-31T11:53:46;23.10;99.90
34829;DHT22;21042;47.620;12.188;2023-07-31T11:56:18;23.10;99.90
34829;DHT22;21042;47.620;12.188;2023-07-31T11:58:47;22.90;99.90
34829;DHT22;21042;47.620;12.188;2023-07-31T12:01:16;22.60;99.90
34829;DHT22;21042;47.620;12.188;2023-07-31T12:03:46;22.90;99.90
34829;DHT22;21042;47.620;12.188;2023-07-31T12:06:13;23.20;99.90
34829;DHT22;21042;47.620;12.188;2023-07-31T12:08:40;23.30;99.90
34829;DHT22;21042;47.620;12.188;2023-07-31T12:11:08;23.40;99.90
34829;DHT22;21042;47.620;12.188;2023-07-31T12:13:38;23.50;99.90
34829;DHT22;21042;47.620;12.188;2023-07-31T12:16:05;23.80;99.90
34829;DHT22;21042;47.620;12.188;2023-07-31T12:18:36;23.70;99.90
34829;DHT22;21042;47.620;12.188;2023-07-31T12:21:06;23.80;99.90
34829;DHT22;21042;47.620;12.188;2023-07-31T12:23:34;24.00;99.90
34829;DHT22;21042;47.620;12.188;2023-07-31T12:26:12;24.10;99.90
34829;DHT22;21042;47.620;12.188;2023-07-31T12:28:47;24.20;99.90
34829;DHT22;21042;47.620;12.188;2023-07-31T12:31:20;24.30;99.90
34829;DHT22;21042;47.620;12.188;2023-07-31T12:33:48;24.40;99.90
34829;DHT22;21042;47.620;12.188;2023-07-31T12:36:21;24.60;99.90
34829;DHT22;21042;47.620;12.188;2023-07-31T12:38:49;24.90;99.90
34829;DHT22;21042;47.620;12.188;2023-07-31T12:41:17;25.10;99.90
34829;DHT22;21042;47.620;12.188;2023-07-31T12:43:45;25.30;99.90
34829;DHT22;21042;47.620;12.188;2023-07-31T12:46:11;24.90;99.90
34829;DHT22;21042;47.620;12.188;2023-07-31T12:48:40;24.60;99.90
34829;DHT22;21042;47.620;12.188;2023-07-31T12:51:07;24.30;99.90
34829;DHT22;21042;47.620;12.188;2023-07-31T12:53:35;24.20;99.90
34829;DHT22;21042;47.620;12.188;2023-07-31T12:56:02;24.30;99.90
34829;DHT22;21042;47.620;12.188;2023-07-31T12:58:28;24.80;99.90
34829;DHT22;21042;47.620;12.188;2023-07-31T13:00:55;25.10;99.90
34829;DHT22;21042;47.620;12.188;2023-07-31T13:03:22;25.20;99.90
34829;DHT22;21042;47.620;12.188;2023-07-31T13:05:50;25.30;99.90
34829;DHT22;21042;47.620;12.188;2023-07-31T13:08:16;25.30;99.90
34829;DHT22;21042;47.620;12.188;2023-07-31T13:10:44;25.00;99.90
34829;DHT22;21042;47.620;12.188;2023-07-31T13:13:11;25.10;99.90
34829;DHT22;21042;47.620;12.188;2023-07-31T13:15:38;25.00;99.90
34829;DHT22;21042;47.620;12.188;2023-07-31T13:18:07;24.90;99.90
34829;DHT22;21042;47.620;12.188;2023-07-31T13:20:34;24.90;99.90
34829;DHT22;21042;47.620;12.188;2023-07-31T13:23:00;25.10;99.90
34829;DHT22;21042;47.620;12.188;2023-07-31T13:25:27;25.10;99.90
34829;DHT22;21042;47.620;12.188;2023-07-31T13:27:55;25.20;99.90
34829;DHT22;21042;47.620;12.188;2023-07-31T13:30:22;25.20;99.90
34829;DHT22;21042;47.620;12.188;2023-07-31T13:32:49;25.30;99.90
34829;DHT22;21042;47.620;12.188;2023-07-31T13:35:16;25.50;99.90
34829;DHT22;21042;47.620;12.188;2023-07-31T13:37:42;25.80;99.90
34829;DHT22;21042;47.620;12.188;2023-07-31T13:40:10;25.70;99.90
34829;DHT22;21042;47.620;12.188;2023-07-31T13:42:36;25.90;99.90
34829;DHT22;21042;47.620;12.188;2023-07-31T13:45:04;26.00;99.90
34829;DHT22;21042;47.620;12.188;2023-07-31T13:47:33;26.20;99.90
34829;DHT22;21042;47.620;12.188;2023-07-31T13:50:01;26.20;99.90
34829;DHT22;21042;47.620;12.188;2023-07-31T13:52:28;26.00;99.90
34829;DHT22;21042;47.620;12.188;2023-07-31T13:54:54;26.00;99.90
34829;DHT22;21042;47.620;12.188;2023-07-31T13:57:21;25.90;99.90
34829;DHT22;21042;47.620;12.188;2023-07-31T13:59:49;26.00;99.90
34829;DHT22;21042;47.620;12.188;2023-07-31T14:02:16;26.30;99.90
34829;DHT22;21042;47.620;12.188;2023-07-31T14:04:43;26.30;99.90
34829;DHT22;21042;47.620;12.188;2023-07-31T14:07:10;26.30;99.90
34829;DHT22;21042;47.620;12.188;2023-07-31T14:09:37;26.10;99.90
34829;DHT22;21042;47.620;12.188;2023-07-31T14:12:04;25.70;99.90
34829;DHT22;21042;47.620;12.188;2023-07-31T14:14:30;25.20;99.90
34829;DHT22;21042;47.620;12.188;2023-07-31T14:17:00;24.80;99.90
34829;DHT22;21042;47.620;12.188;2023-07-31T14:19:27;24.50;99.90
34829;DHT22;21042;47.620;12.188;2023-07-31T14:21:54;24.20;99.90
34829;DHT22;21042;47.620;12.188;2023-07-31T14:24:37;24.00;99.90
34829;DHT22;21042;47.620;12.188;2023-07-31T14:27:04;24.00;99.90
34829;DHT22;21042;47.620;12.188;2023-07-31T14:29:31;23.80;99.90
34829;DHT22;21042;47.620;12.188;2023-07-31T14:31:57;23.70;99.90
34829;DHT22;21042;47.620;12.188;2023-07-31T14:34:26;23.60;99.90
34829;DHT22;21042;47.620;12.188;2023-07-31T14:36:53;23.50;99.90
34829;DHT22;21042;47.620;12.188;2023-07-31T14:39:19;23.50;99.90
34829;DHT22;21042;47.620;12.188;2023-07-31T14:41:46;23.40;99.90
34829;DHT22;21042;47.620;12.188;2023-07-31T14:44:14;23.50;99.90
34829;DHT22;21042;47.620;12.188;2023-07-31T14:46:41;23.60;99.90
34829;DHT22;21042;47.620;12.188;2023-07-31T14:49:08;23.70;99.90
34829;DHT22;21042;47.620;12.188;2023-07-31T14:51:35;23.80;99.90
34829;DHT22;21042;47.620;12.188;2023-07-31T14:54:02;24.00;99.90
34829;DHT22;21042;47.620;12.188;2023-07-31T14:56:29;24.10;99.90
34829;DHT22;21042;47.620;12.188;2023-07-31T14:58:55;24.10;99.90
34829;DHT22;21042;47.620;12.188;2023-07-31T15:01:23;24.20;99.90
34829;DHT22;21042;47.620;12.188;2023-07-31T15:03:49;24.00;99.90
34829;DHT22;21042;47.620;12.188;2023-07-31T15:06:16;24.00;99.90
34829;DHT22;21042;47.620;12.188;2023-07-31T15:08:43;24.00;99.90
34829;DHT22;21042;47.620;12.188;2023-07-31T15:11:10;24.00;99.90
34829;DHT22;21042;47.620;12.188;2023-07-31T15:13:37;23.90;99.90
34829;DHT22;21042;47.620;12.188;2023-07-31T15:16:04;23.80;99.90
34829;DHT22;21042;47.620;12.188;2023-07-31T15:18:30;23.70;99.90
34829;DHT22;21042;47.620;12.188;2023-07-31T15:20:57;23.70;99.90
34829;DHT22;21042;47.620;12.188;2023-07-31T15:23:24;23.80;99.90
34829;DHT22;21042;47.620;12.188;2023-07-31T15:25:52;24.10;99.90
34829;DHT22;21042;47.620;12.188;2023-07-31T15:28:19;24.40;99.90
34829;DHT22;21042;47.620;12.188;2023-07-31T15:30:46;24.80;99.90
34829;DHT22;21042;47.620;12.188;2023-07-31T15:33:15;25.20;99.90
34829;DHT22;21042;47.620;12.188;2023-07-31T15:35:42;25.50;99.90